sensor_id;sensor_type;location;lat;lon;timestamp;P1;durP1;ratioP1;P2;durP2;ratioP2
20034;SDS011;10178;48.034;9.800;2022-07-23T00:00:31;13.15;;;7.53;;
20034;SDS011;10178;48.034;9.800;2022-07-23T00:02:57;14.07;;;7.93;;
20034;SDS011;10178;48.034;9.800;2022-07-23T00:05:22;10.05;;;7.60;;
20034;SDS011;10178;48.034;9.800;2022-07-23T00:07:48;8.65;;;7.72;;
20034;SDS011;10178;48.034;9.800;2022-07-23T00:10:14;9.55;;;7.35;;
20034;SDS011;10178;48.034;9.800;2022-07-23T00:12:39;16.40;;;7.78;;
20034;SDS011;10178;48.034;9.800;2022-07-23T00:15:05;8.73;;;7.60;;
20034;SDS011;10178;48.034;9.800;2022-07-23T00:17:32;10.10;;;7.43;;
20034;SDS011;10178;48.034;9.800;2022-07-23T00:19:57;14.75;;;7.00;;
20034;SDS011;10178;48.034;9.800;2022-07-23T00:22:23;9.05;;;6.88;;
20034;SDS011;10178;48.034;9.800;2022-07-23T00:24:49;7.32;;;5.85;;
20034;SDS011;10178;48.034;9.800;2022-07-23T00:27:15;7.70;;;6.53;;
20034;SDS011;10178;48.034;9.800;2022-07-23T00:29:40;7.22;;;6.28;;
20034;SDS011;10178;48.034;9.800;2022-07-23T00:32:06;7.43;;;6.03;;
20034;SDS011;10178;48.034;9.800;2022-07-23T00:34:31;6.60;;;6.00;;
20034;SDS011;10178;48.034;9.800;2022-07-23T00:36:57;8.10;;;5.70;;
20034;SDS011;10178;48.034;9.800;2022-07-23T00:39:23;7.47;;;5.88;;
20034;SDS011;10178;48.034;9.800;2022-07-23T00:41:49;9.82;;;6.65;;
20034;SDS011;10178;48.034;9.800;2022-07-23T00:44:20;11.38;;;7.82;;
20034;SDS011;10178;48.034;9.800;2022-07-23T00:46:51;7.35;;;6.30;;
20034;SDS011;10178;48.034;9.800;2022-07-23T00:49:19;9.05;;;5.88;;
20034;SDS011;10178;48.034;9.800;2022-07-23T00:51:46;8.52;;;7.20;;
20034;SDS011;10178;48.034;9.800;2022-07-23T00:54:12;5.95;;;5.45;;
20034;SDS011;10178;48.034;9.800;2022-07-23T00:56:38;5.88;;;5.43;;
20034;SDS011;10178;48.034;9.800;2022-07-23T00:59:06;8.35;;;7.05;;
20034;SDS011;10178;48.034;9.800;2022-07-23T01:01:32;7.63;;;6.82;;
20034;SDS011;10178;48.034;9.800;2022-07-23T01:03:58;8.60;;;7.70;;
20034;SDS011;10178;48.034;9.800;2022-07-23T01:06:23;6.60;;;6.00;;
20034;SDS011;10178;48.034;9.800;2022-07-23T01:08:49;6.85;;;5.65;;
20034;SDS011;10178;48.034;9.800;2022-07-23T01:11:14;6.00;;;5.50;;
20034;SDS011;10178;48.034;9.800;2022-07-23T01:13:44;11.18;;;7.20;;
20034;SDS011;10178;48.034;9.800;2022-07-23T01:16:10;8.43;;;7.38;;
20034;SDS011;10178;48.034;9.800;2022-07-23T01:18:36;9.68;;;8.57;;
20034;SDS011;10178;48.034;9.800;2022-07-23T01:21:02;9.20;;;7.88;;
20034;SDS011;10178;48.034;9.800;2022-07-23T01:23:28;12.88;;;8.10;;
20034;SDS011;10178;48.034;9.800;2022-07-23T01:25:54;10.77;;;8.80;;
20034;SDS011;10178;48.034;9.800;2022-07-23T01:28:20;10.32;;;9.27;;
20034;SDS011;10178;48.034;9.800;2022-07-23T01:30:47;15.60;;;9.45;;
20034;SDS011;10178;48.034;9.800;2022-07-23T01:33:13;14.25;;;10.70;;
20034;SDS011;10178;48.034;9.800;2022-07-23T01:35:39;9.77;;;8.77;;
20034;SDS011;10178;48.034;9.800;2022-07-23T01:38:05;13.20;;;9.30;;
20034;SDS011;10178;48.034;9.800;2022-07-23T01:40:30;10.02;;;8.48;;
20034;SDS011;10178;48.034;9.800;2022-07-23T01:42:56;9.38;;;8.48;;
20034;SDS011;10178;48.034;9.800;2022-07-23T01:45:22;14.43;;;8.40;;
20034;SDS011;10178;48.034;9.800;2022-07-23T01:47:48;11.20;;;8.63;;
20034;SDS011;10178;48.034;9.800;2022-07-23T01:50:13;9.25;;;7.03;;
20034;SDS011;10178;48.034;9.800;2022-07-23T01:52:39;7.03;;;6.38;;
20034;SDS011;10178;48.034;9.800;2022-07-23T01:55:05;9.68;;;6.45;;
20034;SDS011;10178;48.034;9.800;2022-07-23T01:57:32;8.95;;;6.82;;
20034;SDS011;10178;48.034;9.800;2022-07-23T01:59:58;7.53;;;5.88;;
20034;SDS011;10178;48.034;9.800;2022-07-23T02:02:23;8.25;;;6.15;;
20034;SDS011;10178;48.034;9.800;2022-07-23T02:04:49;9.95;;;7.07;;
20034;SDS011;10178;48.034;9.800;2022-07-23T02:07:15;7.65;;;6.18;;
20034;SDS011;10178;48.034;9.800;2022-07-23T02:09:41;7.28;;;6.53;;
20034;SDS011;10178;48.034;9.800;2022-07-23T02:12:07;6.57;;;5.97;;
20034;SDS011;10178;48.034;9.800;2022-07-23T02:14:33;6.95;;;6.07;;
20034;SDS011;10178;48.034;9.800;2022-07-23T02:16:58;7.80;;;6.10;;
20034;SDS011;10178;48.034;9.800;2022-07-23T02:19:24;7.28;;;6.57;;
20034;SDS011;10178;48.034;9.800;2022-07-23T02:21:50;6.95;;;6.25;;
20034;SDS011;10178;48.034;9.800;2022-07-23T02:24:16;9.85;;;6.72;;
20034;SDS011;10178;48.034;9.800;2022-07-23T02:26:41;7.90;;;7.15;;
20034;SDS011;10178;48.034;9.800;2022-07-23T02:29:07;8.25;;;7.43;;
20034;SDS011;10178;48.034;9.800;2022-07-23T02:31:33;8.38;;;7.28;;
20034;SDS011;10178;48.034;9.800;2022-07-23T02:33:59;8.02;;;7.22;;
20034;SDS011;10178;48.034;9.800;2022-07-23T02:36:25;7.97;;;7.18;;
20034;SDS011;10178;48.034;9.800;2022-07-23T02:38:51;8.57;;;7.40;;
20034;SDS011;10178;48.034;9.800;2022-07-23T02:41:17;7.70;;;6.65;;
20034;SDS011;10178;48.034;9.800;2022-07-23T02:43:42;7.70;;;6.80;;
20034;SDS011;10178;48.034;9.800;2022-07-23T02:46:08;8.15;;;7.35;;
20034;SDS011;10178;48.034;9.800;2022-07-23T02:48:34;8.75;;;6.82;;
20034;SDS011;10178;48.034;9.800;2022-07-23T02:50:59;7.63;;;6.25;;
20034;SDS011;10178;48.034;9.800;2022-07-23T02:53:25;7.15;;;6.13;;
20034;SDS011;10178;48.034;9.800;2022-07-23T02:55:51;7.28;;;6.57;;
20034;SDS011;10178;48.034;9.800;2022-07-23T02:58:16;7.68;;;6.15;;
20034;SDS011;10178;48.034;9.800;2022-07-23T03:00:42;6.85;;;6.15;;
20034;SDS011;10178;48.034;9.800;2022-07-23T03:03:08;7.88;;;6.75;;
20034;SDS011;10178;48.034;9.800;2022-07-23T03:05:34;8.32;;;7.40;;
20034;SDS011;10178;48.034;9.800;2022-07-23T03:08:00;7.57;;;6.90;;
20034;SDS011;10178;48.034;9.800;2022-07-23T03:10:25;7.20;;;5.85;;
20034;SDS011;10178;48.034;9.800;2022-07-23T03:12:51;6.63;;;5.85;;
20034;SDS011;10178;48.034;9.800;2022-07-23T03:15:17;7.90;;;5.95;;
20034;SDS011;10178;48.034;9.800;2022-07-23T03:17:43;6.50;;;5.90;;
20034;SDS011;10178;48.034;9.800;2022-07-23T03:20:08;5.93;;;5.43;;
20034;SDS011;10178;48.034;9.800;2022-07-23T03:22:34;6.82;;;6.13;;
20034;SDS011;10178;48.034;9.800;2022-07-23T03:25:00;8.82;;;5.65;;
20034;SDS011;10178;48.034;9.800;2022-07-23T03:27:27;6.55;;;4.97;;
20034;SDS011;10178;48.034;9.800;2022-07-23T03:29:54;5.82;;;5.22;;
20034;SDS011;10178;48.034;9.800;2022-07-23T03:32:22;7.68;;;5.30;;
20034;SDS011;10178;48.034;9.800;2022-07-23T03:34:48;5.22;;;4.72;;
20034;SDS011;10178;48.034;9.800;2022-07-23T03:37:14;9.70;;;5.65;;
20034;SDS011;10178;48.034;9.800;2022-07-23T03:39:40;6.38;;;5.28;;
20034;SDS011;10178;48.034;9.800;2022-07-23T03:42:06;5.57;;;4.90;;
20034;SDS011;10178;48.034;9.800;2022-07-23T03:44:32;5.65;;;5.15;;
20034;SDS011;10178;48.034;9.800;2022-07-23T03:46:58;7.05;;;5.53;;
20034;SDS011;10178;48.034;9.800;2022-07-23T03:49:24;5.85;;;5.35;;
20034;SDS011;10178;48.034;9.800;2022-07-23T03:51:50;7.32;;;5.50;;
20034;SDS011;10178;48.034;9.800;2022-07-23T03:54:15;9.93;;;7.15;;
20034;SDS011;10178;48.034;9.800;2022-07-23T03:56:41;8.52;;;6.57;;
20034;SDS011;10178;48.034;9.800;2022-07-23T03:59:07;13.55;;;8.20;;
20034;SDS011;10178;48.034;9.800;2022-07-23T04:01:34;10.30;;;8.23;;
20034;SDS011;10178;48.034;9.800;2022-07-23T04:03:59;10.82;;;8.38;;
20034;SDS011;10178;48.034;9.800;2022-07-23T04:06:25;8.40;;;7.22;;
20034;SDS011;10178;48.034;9.800;2022-07-23T04:08:51;10.52;;;6.95;;
20034;SDS011;10178;48.034;9.800;2022-07-23T04:11:17;6.90;;;5.90;;
20034;SDS011;10178;48.034;9.800;2022-07-23T04:13:42;9.95;;;6.32;;
20034;SDS011;10178;48.034;9.800;2022-07-23T04:16:08;7.57;;;5.30;;
20034;SDS011;10178;48.034;9.800;2022-07-23T04:18:34;5.95;;;5.35;;
20034;SDS011;10178;48.034;9.800;2022-07-23T04:20:59;6.25;;;5.65;;
20034;SDS011;10178;48.034;9.800;2022-07-23T04:23:25;7.95;;;5.53;;
20034;SDS011;10178;48.034;9.800;2022-07-23T04:25:50;5.70;;;5.30;;
20034;SDS011;10178;48.034;9.800;2022-07-23T04:28:16;5.20;;;4.70;;
20034;SDS011;10178;48.034;9.800;2022-07-23T04:30:42;6.40;;;4.88;;
20034;SDS011;10178;48.034;9.800;2022-07-23T04:33:07;5.80;;;5.05;;
20034;SDS011;10178;48.034;9.800;2022-07-23T04:35:34;5.90;;;5.30;;
20034;SDS011;10178;48.034;9.800;2022-07-23T04:37:59;5.85;;;4.82;;
20034;SDS011;10178;48.034;9.800;2022-07-23T04:40:26;6.78;;;5.00;;
20034;SDS011;10178;48.034;9.800;2022-07-23T04:42:52;7.60;;;5.75;;
20034;SDS011;10178;48.034;9.800;2022-07-23T04:45:18;6.95;;;6.20;;
20034;SDS011;10178;48.034;9.800;2022-07-23T04:47:43;11.90;;;7.47;;
20034;SDS011;10178;48.034;9.800;2022-07-23T04:50:09;11.77;;;8.05;;
20034;SDS011;10178;48.034;9.800;2022-07-23T04:52:35;10.35;;;8.95;;
20034;SDS011;10178;48.034;9.800;2022-07-23T04:55:01;12.13;;;8.98;;
20034;SDS011;10178;48.034;9.800;2022-07-23T04:57:26;12.70;;;7.68;;
20034;SDS011;10178;48.034;9.800;2022-07-23T04:59:52;7.93;;;7.10;;
20034;SDS011;10178;48.034;9.800;2022-07-23T05:02:18;9.93;;;6.47;;
20034;SDS011;10178;48.034;9.800;2022-07-23T05:04:43;7.05;;;6.40;;
20034;SDS011;10178;48.034;9.800;2022-07-23T05:07:09;10.38;;;6.25;;
20034;SDS011;10178;48.034;9.800;2022-07-23T05:09:34;10.13;;;7.25;;
20034;SDS011;10178;48.034;9.800;2022-07-23T05:12:00;6.93;;;6.07;;
20034;SDS011;10178;48.034;9.800;2022-07-23T05:14:26;6.10;;;5.50;;
20034;SDS011;10178;48.034;9.800;2022-07-23T05:16:52;6.60;;;5.43;;
20034;SDS011;10178;48.034;9.800;2022-07-23T05:19:19;11.00;;;7.20;;
20034;SDS011;10178;48.034;9.800;2022-07-23T05:21:45;6.35;;;5.63;;
20034;SDS011;10178;48.034;9.800;2022-07-23T05:24:11;7.63;;;6.03;;
20034;SDS011;10178;48.034;9.800;2022-07-23T05:26:36;5.88;;;5.38;;
20034;SDS011;10178;48.034;9.800;2022-07-23T05:29:02;7.72;;;5.55;;
20034;SDS011;10178;48.034;9.800;2022-07-23T05:31:28;12.02;;;6.57;;
20034;SDS011;10178;48.034;9.800;2022-07-23T05:33:53;7.53;;;5.70;;
20034;SDS011;10178;48.034;9.800;2022-07-23T05:36:19;5.65;;;5.13;;
20034;SDS011;10178;48.034;9.800;2022-07-23T05:38:45;9.93;;;5.78;;
20034;SDS011;10178;48.034;9.800;2022-07-23T05:41:10;5.82;;;5.22;;
20034;SDS011;10178;48.034;9.800;2022-07-23T05:43:36;8.43;;;5.45;;
20034;SDS011;10178;48.034;9.800;2022-07-23T05:46:02;7.60;;;5.57;;
20034;SDS011;10178;48.034;9.800;2022-07-23T05:48:27;6.85;;;5.32;;
20034;SDS011;10178;48.034;9.800;2022-07-23T05:50:53;8.93;;;5.20;;
20034;SDS011;10178;48.034;9.800;2022-07-23T05:53:18;6.57;;;5.82;;
20034;SDS011;10178;48.034;9.800;2022-07-23T05:55:44;12.80;;;7.03;;
20034;SDS011;10178;48.034;9.800;2022-07-23T05:58:10;10.02;;;7.45;;
20034;SDS011;10178;48.034;9.800;2022-07-23T06:00:35;9.65;;;7.80;;
20034;SDS011;10178;48.034;9.800;2022-07-23T06:03:01;13.50;;;6.93;;
20034;SDS011;10178;48.034;9.800;2022-07-23T06:05:27;8.27;;;6.15;;
20034;SDS011;10178;48.034;9.800;2022-07-23T06:07:52;7.65;;;5.82;;
20034;SDS011;10178;48.034;9.800;2022-07-23T06:10:19;6.45;;;5.88;;
20034;SDS011;10178;48.034;9.800;2022-07-23T06:12:44;6.57;;;5.70;;
20034;SDS011;10178;48.034;9.800;2022-07-23T06:15:10;7.57;;;6.13;;
20034;SDS011;10178;48.034;9.800;2022-07-23T06:17:36;7.65;;;6.88;;
20034;SDS011;10178;48.034;9.800;2022-07-23T06:20:04;7.95;;;5.80;;
20034;SDS011;10178;48.034;9.800;2022-07-23T06:22:35;7.28;;;5.68;;
20034;SDS011;10178;48.034;9.800;2022-07-23T06:25:00;11.15;;;6.65;;
20034;SDS011;10178;48.034;9.800;2022-07-23T06:27:26;8.52;;;7.63;;
20034;SDS011;10178;48.034;9.800;2022-07-23T06:29:52;9.45;;;8.48;;
20034;SDS011;10178;48.034;9.800;2022-07-23T06:32:18;10.70;;;9.15;;
20034;SDS011;10178;48.034;9.800;2022-07-23T06:34:44;13.52;;;9.32;;
20034;SDS011;10178;48.034;9.800;2022-07-23T06:37:09;19.40;;;7.13;;
20034;SDS011;10178;48.034;9.800;2022-07-23T06:39:35;7.68;;;6.78;;
20034;SDS011;10178;48.034;9.800;2022-07-23T06:42:01;9.27;;;8.38;;
20034;SDS011;10178;48.034;9.800;2022-07-23T06:44:26;9.63;;;8.73;;
20034;SDS011;10178;48.034;9.800;2022-07-23T06:46:52;8.93;;;7.70;;
20034;SDS011;10178;48.034;9.800;2022-07-23T06:49:18;8.43;;;6.30;;
20034;SDS011;10178;48.034;9.800;2022-07-23T06:51:43;7.63;;;5.88;;
20034;SDS011;10178;48.034;9.800;2022-07-23T06:54:09;9.80;;;6.97;;
20034;SDS011;10178;48.034;9.800;2022-07-23T06:56:35;8.43;;;6.28;;
20034;SDS011;10178;48.034;9.800;2022-07-23T06:59:00;7.95;;;6.25;;
20034;SDS011;10178;48.034;9.800;2022-07-23T07:01:26;5.75;;;4.90;;
20034;SDS011;10178;48.034;9.800;2022-07-23T07:03:52;6.43;;;5.15;;
20034;SDS011;10178;48.034;9.800;2022-07-23T07:06:18;5.63;;;5.13;;
20034;SDS011;10178;48.034;9.800;2022-07-23T07:08:44;6.18;;;5.63;;
20034;SDS011;10178;48.034;9.800;2022-07-23T07:11:10;7.63;;;5.20;;
20034;SDS011;10178;48.034;9.800;2022-07-23T07:13:36;5.50;;;5.00;;
20034;SDS011;10178;48.034;9.800;2022-07-23T07:16:02;6.18;;;5.57;;
20034;SDS011;10178;48.034;9.800;2022-07-23T07:18:28;6.13;;;5.53;;
20034;SDS011;10178;48.034;9.800;2022-07-23T07:20:54;7.47;;;6.03;;
20034;SDS011;10178;48.034;9.800;2022-07-23T07:23:19;5.50;;;5.00;;
20034;SDS011;10178;48.034;9.800;2022-07-23T07:25:45;5.47;;;5.05;;
20034;SDS011;10178;48.034;9.800;2022-07-23T07:28:11;5.72;;;5.15;;
20034;SDS011;10178;48.034;9.800;2022-07-23T07:30:37;5.20;;;4.70;;
20034;SDS011;10178;48.034;9.800;2022-07-23T07:33:03;5.63;;;4.88;;
20034;SDS011;10178;48.034;9.800;2022-07-23T07:35:29;5.45;;;4.95;;
20034;SDS011;10178;48.034;9.800;2022-07-23T07:37:56;5.90;;;5.30;;
20034;SDS011;10178;48.034;9.800;2022-07-23T07:40:21;9.95;;;7.25;;
20034;SDS011;10178;48.034;9.800;2022-07-23T07:42:48;8.00;;;6.68;;
20034;SDS011;10178;48.034;9.800;2022-07-23T07:45:19;7.43;;;6.10;;
20034;SDS011;10178;48.034;9.800;2022-07-23T07:47:46;7.18;;;6.47;;
20034;SDS011;10178;48.034;9.800;2022-07-23T07:50:12;6.43;;;5.82;;
20034;SDS011;10178;48.034;9.800;2022-07-23T07:52:39;8.40;;;7.43;;
20034;SDS011;10178;48.034;9.800;2022-07-23T07:55:05;8.65;;;7.75;;
20034;SDS011;10178;48.034;9.800;2022-07-23T07:57:32;8.43;;;7.63;;
20034;SDS011;10178;48.034;9.800;2022-07-23T07:59:58;8.80;;;7.90;;
20034;SDS011;10178;48.034;9.800;2022-07-23T08:02:23;9.73;;;7.35;;
20034;SDS011;10178;48.034;9.800;2022-07-23T08:04:49;9.07;;;7.47;;
20034;SDS011;10178;48.034;9.800;2022-07-23T08:07:15;9.38;;;7.25;;
20034;SDS011;10178;48.034;9.800;2022-07-23T08:09:41;8.35;;;7.25;;
20034;SDS011;10178;48.034;9.800;2022-07-23T08:12:07;9.60;;;8.00;;
20034;SDS011;10178;48.034;9.800;2022-07-23T08:14:33;8.98;;;8.18;;
20034;SDS011;10178;48.034;9.800;2022-07-23T08:16:58;8.85;;;7.95;;
20034;SDS011;10178;48.034;9.800;2022-07-23T08:19:24;7.22;;;6.53;;
20034;SDS011;10178;48.034;9.800;2022-07-23T08:21:50;8.88;;;6.93;;
20034;SDS011;10178;48.034;9.800;2022-07-23T08:24:15;6.50;;;5.80;;
20034;SDS011;10178;48.034;9.800;2022-07-23T08:26:41;7.88;;;6.43;;
20034;SDS011;10178;48.034;9.800;2022-07-23T08:29:07;6.68;;;6.00;;
20034;SDS011;10178;48.034;9.800;2022-07-23T08:31:32;9.00;;;6.82;;
20034;SDS011;10178;48.034;9.800;2022-07-23T08:33:58;7.60;;;6.20;;
20034;SDS011;10178;48.034;9.800;2022-07-23T08:36:25;9.43;;;6.90;;
20034;SDS011;10178;48.034;9.800;2022-07-23T08:38:52;7.00;;;6.30;;
20034;SDS011;10178;48.034;9.800;2022-07-23T08:41:19;7.13;;;6.43;;
20034;SDS011;10178;48.034;9.800;2022-07-23T08:43:45;11.07;;;6.95;;
20034;SDS011;10178;48.034;9.800;2022-07-23T08:46:11;7.32;;;6.63;;
20034;SDS011;10178;48.034;9.800;2022-07-23T08:48:38;7.53;;;6.82;;
20034;SDS011;10178;48.034;9.800;2022-07-23T08:51:05;12.27;;;8.98;;
20034;SDS011;10178;48.034;9.800;2022-07-23T08:53:31;9.63;;;8.70;;
20034;SDS011;10178;48.034;9.800;2022-07-23T08:55:59;9.70;;;8.10;;
20034;SDS011;10178;48.034;9.800;2022-07-23T08:58:29;10.65;;;7.78;;
20034;SDS011;10178;48.034;9.800;2022-07-23T09:00:56;11.40;;;8.60;;
20034;SDS011;10178;48.034;9.800;2022-07-23T09:03:23;10.10;;;8.18;;
20034;SDS011;10178;48.034;9.800;2022-07-23T09:05:57;10.70;;;9.40;;
20034;SDS011;10178;48.034;9.800;2022-07-23T09:08:24;9.40;;;8.50;;
20034;SDS011;10178;48.034;9.800;2022-07-23T09:11:02;10.32;;;7.80;;
20034;SDS011;10178;48.034;9.800;2022-07-23T09:16:24;9.35;;;8.02;;
20034;SDS011;10178;48.034;9.800;2022-07-23T09:18:53;12.63;;;9.30;;
20034;SDS011;10178;48.034;9.800;2022-07-23T09:23:52;8.73;;;7.28;;
20034;SDS011;10178;48.034;9.800;2022-07-23T09:26:26;8.23;;;7.53;;
20034;SDS011;10178;48.034;9.800;2022-07-23T09:29:16;9.85;;;8.85;;
20034;SDS011;10178;48.034;9.800;2022-07-23T09:31:45;9.95;;;8.70;;
20034;SDS011;10178;48.034;9.800;2022-07-23T09:34:19;9.80;;;8.45;;
20034;SDS011;10178;48.034;9.800;2022-07-23T09:36:53;7.90;;;6.95;;
20034;SDS011;10178;48.034;9.800;2022-07-23T09:39:28;8.85;;;7.95;;
20034;SDS011;10178;48.034;9.800;2022-07-23T09:41:56;13.02;;;9.68;;
20034;SDS011;10178;48.034;9.800;2022-07-23T09:44:22;8.88;;;7.97;;
20034;SDS011;10178;48.034;9.800;2022-07-23T09:46:52;9.20;;;7.28;;
20034;SDS011;10178;48.034;9.800;2022-07-23T09:49:23;8.25;;;6.20;;
20034;SDS011;10178;48.034;9.800;2022-07-23T09:51:57;7.30;;;6.60;;
20034;SDS011;10178;48.034;9.800;2022-07-23T09:54:34;9.50;;;8.50;;
20034;SDS011;10178;48.034;9.800;2022-07-23T09:59:35;8.82;;;7.90;;
20034;SDS011;10178;48.034;9.800;2022-07-23T10:02:03;8.70;;;7.80;;
20034;SDS011;10178;48.034;9.800;2022-07-23T10:04:30;7.70;;;6.93;;
20034;SDS011;10178;48.034;9.800;2022-07-23T10:06:58;12.45;;;8.20;;
20034;SDS011;10178;48.034;9.800;2022-07-23T10:09:26;13.23;;;8.38;;
20034;SDS011;10178;48.034;9.800;2022-07-23T10:12:03;10.05;;;7.80;;
20034;SDS011;10178;48.034;9.800;2022-07-23T10:14:48;11.13;;;8.07;;
20034;SDS011;10178;48.034;9.800;2022-07-23T10:17:15;10.13;;;7.63;;
20034;SDS011;10178;48.034;9.800;2022-07-23T10:19:41;9.32;;;7.88;;
20034;SDS011;10178;48.034;9.800;2022-07-23T10:22:29;13.20;;;8.90;;
20034;SDS011;10178;48.034;9.800;2022-07-23T10:35:59;9.75;;;8.25;;
20034;SDS011;10178;48.034;9.800;2022-07-23T10:41:03;13.60;;;9.15;;
20034;SDS011;10178;48.034;9.800;2022-07-23T10:43:30;11.68;;;8.63;;
20034;SDS011;10178;48.034;9.800;2022-07-23T10:45:57;9.98;;;8.82;;
20034;SDS011;10178;48.034;9.800;2022-07-23T10:48:44;9.35;;;8.45;;
20034;SDS011;10178;48.034;9.800;2022-07-23T10:56:16;7.88;;;7.10;;
20034;SDS011;10178;48.034;9.800;2022-07-23T10:59:03;9.25;;;8.20;;
20034;SDS011;10178;48.034;9.800;2022-07-23T11:01:36;12.02;;;9.45;;
20034;SDS011;10178;48.034;9.800;2022-07-23T11:04:03;9.00;;;8.10;;
20034;SDS011;10178;48.034;9.800;2022-07-23T11:09:29;12.50;;;9.40;;
20034;SDS011;10178;48.034;9.800;2022-07-23T11:15:09;11.77;;;10.00;;
20034;SDS011;10178;48.034;9.800;2022-07-23T11:17:58;10.07;;;8.98;;
20034;SDS011;10178;48.034;9.800;2022-07-23T11:20:25;12.45;;;8.82;;
20034;SDS011;10178;48.034;9.800;2022-07-23T11:22:52;10.48;;;9.35;;
20034;SDS011;10178;48.034;9.800;2022-07-23T11:27:48;13.00;;;10.00;;
20034;SDS011;10178;48.034;9.800;2022-07-23T11:32:53;10.75;;;8.63;;
20034;SDS011;10178;48.034;9.800;2022-07-23T11:35:39;10.32;;;8.02;;
20034;SDS011;10178;48.034;9.800;2022-07-23T11:38:09;15.50;;;9.70;;
20034;SDS011;10178;48.034;9.800;2022-07-23T11:40:37;8.23;;;7.43;;
20034;SDS011;10178;48.034;9.800;2022-07-23T11:43:05;9.95;;;7.43;;
20034;SDS011;10178;48.034;9.800;2022-07-23T11:45:33;9.55;;;8.65;;
20034;SDS011;10178;48.034;9.800;2022-07-23T11:48:01;10.00;;;8.82;;
20034;SDS011;10178;48.034;9.800;2022-07-23T11:50:28;9.15;;;7.40;;
20034;SDS011;10178;48.034;9.800;2022-07-23T11:52:54;9.35;;;7.85;;
20034;SDS011;10178;48.034;9.800;2022-07-23T11:55:20;9.18;;;8.13;;
20034;SDS011;10178;48.034;9.800;2022-07-23T11:57:46;8.98;;;7.47;;
20034;SDS011;10178;48.034;9.800;2022-07-23T12:02:44;10.05;;;8.50;;
20034;SDS011;10178;48.034;9.800;2022-07-23T12:05:17;10.25;;;9.25;;
20034;SDS011;10178;48.034;9.800;2022-07-23T12:07:46;9.85;;;8.18;;
20034;SDS011;10178;48.034;9.800;2022-07-23T12:13:10;10.35;;;9.35;;
20034;SDS011;10178;48.034;9.800;2022-07-23T12:15:39;10.77;;;9.10;;
20034;SDS011;10178;48.034;9.800;2022-07-23T12:18:07;9.15;;;8.25;;
20034;SDS011;10178;48.034;9.800;2022-07-23T12:20:35;12.10;;;9.93;;
20034;SDS011;10178;48.034;9.800;2022-07-23T12:23:03;8.48;;;7.68;;
20034;SDS011;10178;48.034;9.800;2022-07-23T12:25:32;11.32;;;9.50;;
20034;SDS011;10178;48.034;9.800;2022-07-23T12:30:44;10.85;;;9.73;;
20034;SDS011;10178;48.034;9.800;2022-07-23T12:33:14;10.02;;;8.93;;
20034;SDS011;10178;48.034;9.800;2022-07-23T12:36:02;11.18;;;10.02;;
20034;SDS011;10178;48.034;9.800;2022-07-23T12:38:36;13.15;;;11.07;;
20034;SDS011;10178;48.034;9.800;2022-07-23T12:41:14;10.38;;;8.80;;
20034;SDS011;10178;48.034;9.800;2022-07-23T12:43:41;17.45;;;10.50;;
20034;SDS011;10178;48.034;9.800;2022-07-23T12:46:09;10.40;;;7.95;;
20034;SDS011;10178;48.034;9.800;2022-07-23T12:48:38;9.90;;;8.90;;
20034;SDS011;10178;48.034;9.800;2022-07-23T12:51:15;12.60;;;10.00;;
20034;SDS011;10178;48.034;9.800;2022-07-23T12:53:47;10.95;;;9.45;;
20034;SDS011;10178;48.034;9.800;2022-07-23T12:56:26;10.10;;;9.05;;
20034;SDS011;10178;48.034;9.800;2022-07-23T12:59:06;12.10;;;10.80;;
20034;SDS011;10178;48.034;9.800;2022-07-23T13:01:45;11.50;;;10.35;;
20034;SDS011;10178;48.034;9.800;2022-07-23T13:04:19;9.43;;;8.52;;
20034;SDS011;10178;48.034;9.800;2022-07-23T13:06:50;12.80;;;9.68;;
20034;SDS011;10178;48.034;9.800;2022-07-23T13:09:19;10.68;;;9.52;;
20034;SDS011;10178;48.034;9.800;2022-07-23T13:11:49;12.82;;;9.57;;
20034;SDS011;10178;48.034;9.800;2022-07-23T13:14:17;12.23;;;10.32;;
20034;SDS011;10178;48.034;9.800;2022-07-23T13:16:44;12.10;;;9.30;;
20034;SDS011;10178;48.034;9.800;2022-07-23T13:19:09;8.70;;;7.90;;
20034;SDS011;10178;48.034;9.800;2022-07-23T13:21:35;11.05;;;9.75;;
20034;SDS011;10178;48.034;9.800;2022-07-23T13:24:01;10.88;;;8.23;;
20034;SDS011;10178;48.034;9.800;2022-07-23T13:26:27;12.23;;;10.90;;
20034;SDS011;10178;48.034;9.800;2022-07-23T13:28:53;12.43;;;10.55;;
20034;SDS011;10178;48.034;9.800;2022-07-23T13:31:20;9.52;;;8.63;;
20034;SDS011;10178;48.034;9.800;2022-07-23T13:33:46;9.20;;;8.13;;
20034;SDS011;10178;48.034;9.800;2022-07-23T13:36:12;11.60;;;10.32;;
20034;SDS011;10178;48.034;9.800;2022-07-23T13:38:39;11.30;;;9.95;;
20034;SDS011;10178;48.034;9.800;2022-07-23T13:41:05;11.43;;;9.95;;
20034;SDS011;10178;48.034;9.800;2022-07-23T13:43:31;11.98;;;10.77;;
20034;SDS011;10178;48.034;9.800;2022-07-23T13:45:57;8.90;;;8.10;;
20034;SDS011;10178;48.034;9.800;2022-07-23T13:48:23;9.50;;;8.60;;
20034;SDS011;10178;48.034;9.800;2022-07-23T13:50:49;10.25;;;8.05;;
20034;SDS011;10178;48.034;9.800;2022-07-23T13:53:16;11.57;;;8.50;;
20034;SDS011;10178;48.034;9.800;2022-07-23T13:55:48;11.75;;;10.55;;
20034;SDS011;10178;48.034;9.800;2022-07-23T13:58:14;10.82;;;9.65;;
20034;SDS011;10178;48.034;9.800;2022-07-23T14:00:43;11.43;;;9.52;;
20034;SDS011;10178;48.034;9.800;2022-07-23T14:03:11;11.70;;;10.55;;
20034;SDS011;10178;48.034;9.800;2022-07-23T14:05:36;10.93;;;8.38;;
20034;SDS011;10178;48.034;9.800;2022-07-23T14:08:02;11.57;;;10.48;;
20034;SDS011;10178;48.034;9.800;2022-07-23T14:10:29;11.20;;;10.18;;
20034;SDS011;10178;48.034;9.800;2022-07-23T14:12:55;12.60;;;10.52;;
20034;SDS011;10178;48.034;9.800;2022-07-23T14:15:23;10.05;;;9.13;;
20034;SDS011;10178;48.034;9.800;2022-07-23T14:17:49;12.55;;;11.35;;
20034;SDS011;10178;48.034;9.800;2022-07-23T14:20:15;10.40;;;9.45;;
20034;SDS011;10178;48.034;9.800;2022-07-23T14:22:41;12.48;;;11.15;;
20034;SDS011;10178;48.034;9.800;2022-07-23T14:25:07;15.20;;;12.05;;
20034;SDS011;10178;48.034;9.800;2022-07-23T14:27:34;10.75;;;9.43;;
20034;SDS011;10178;48.034;9.800;2022-07-23T14:30:00;11.98;;;10.88;;
20034;SDS011;10178;48.034;9.800;2022-07-23T14:32:26;10.93;;;9.68;;
20034;SDS011;10178;48.034;9.800;2022-07-23T14:34:52;13.30;;;10.63;;
20034;SDS011;10178;48.034;9.800;2022-07-23T14:37:18;11.57;;;10.38;;
20034;SDS011;10178;48.034;9.800;2022-07-23T14:39:44;12.07;;;9.68;;
20034;SDS011;10178;48.034;9.800;2022-07-23T14:42:10;11.15;;;9.00;;
20034;SDS011;10178;48.034;9.800;2022-07-23T14:44:36;13.93;;;10.80;;
20034;SDS011;10178;48.034;9.800;2022-07-23T14:47:03;9.50;;;8.70;;
20034;SDS011;10178;48.034;9.800;2022-07-23T14:49:30;9.60;;;8.57;;
20034;SDS011;10178;48.034;9.800;2022-07-23T14:51:56;12.75;;;10.20;;
20034;SDS011;10178;48.034;9.800;2022-07-23T14:54:23;10.88;;;9.88;;
20034;SDS011;10178;48.034;9.800;2022-07-23T14:56:51;10.07;;;9.02;;
20034;SDS011;10178;48.034;9.800;2022-07-23T14:59:16;9.82;;;8.68;;
20034;SDS011;10178;48.034;9.800;2022-07-23T15:01:42;11.70;;;10.50;;
20034;SDS011;10178;48.034;9.800;2022-07-23T15:04:08;12.18;;;10.20;;
20034;SDS011;10178;48.034;9.800;2022-07-23T15:06:34;11.63;;;10.10;;
20034;SDS011;10178;48.034;9.800;2022-07-23T15:09:00;9.98;;;8.80;;
20034;SDS011;10178;48.034;9.800;2022-07-23T15:11:26;13.43;;;10.38;;
20034;SDS011;10178;48.034;9.800;2022-07-23T15:13:54;9.45;;;8.63;;
20034;SDS011;10178;48.034;9.800;2022-07-23T15:16:20;11.75;;;9.95;;
20034;SDS011;10178;48.034;9.800;2022-07-23T15:18:45;9.65;;;8.75;;
20034;SDS011;10178;48.034;9.800;2022-07-23T15:21:11;11.75;;;10.18;;
20034;SDS011;10178;48.034;9.800;2022-07-23T15:23:37;9.73;;;8.82;;
20034;SDS011;10178;48.034;9.800;2022-07-23T15:26:04;11.10;;;10.10;;